createdAt,value
2018-02-08T00:00:59.141Z,46.07
2018-02-08T00:03:26.699Z,45.80
2018-02-08T00:05:54.197Z,43.90
2018-02-08T00:08:21.717Z,47.00
2018-02-08T00:10:49.275Z,44.67
2018-02-08T00:13:16.994Z,42.17
2018-02-08T00:15:44.496Z,47.40
2018-02-08T00:18:12.055Z,48.00
2018-02-08T00:20:39.616Z,46.07
2018-02-08T00:23:07.032Z,45.80
2018-02-08T00:25:35.393Z,46.73
2018-02-08T00:28:02.944Z,44.07
2018-02-08T00:30:30.380Z,44.13
2018-02-08T00:32:57.860Z,46.80
2018-02-08T00:35:25.420Z,48.67
2018-02-08T00:37:52.944Z,45.57
2018-02-08T00:40:20.501Z,47.63
2018-02-08T00:42:47.960Z,48.30
2018-02-08T00:45:15.414Z,43.10
2018-02-08T00:47:42.921Z,43.93
2018-02-08T00:50:10.572Z,47.07
2018-02-08T00:52:38.098Z,46.93
2018-02-08T00:55:05.553Z,44.90
2018-02-08T00:57:33.109Z,45.97
2018-02-08T01:00:00.604Z,44.93
2018-02-08T01:02:28.125Z,45.70
2018-02-08T01:04:55.787Z,45.27
2018-02-08T01:07:23.283Z,46.93
2018-02-08T01:09:50.804Z,46.40
2018-02-08T01:12:18.212Z,45.67
2018-02-08T01:14:45.718Z,46.20
2018-02-08T01:17:13.278Z,46.53
2018-02-08T01:19:40.734Z,49.43
2018-02-08T01:22:08.294Z,45.57
2018-02-08T01:24:35.788Z,46.70
2018-02-08T01:27:03.313Z,44.70
2018-02-08T01:29:30.870Z,45.47
2018-02-08T01:31:58.531Z,47.40
2018-02-08T01:34:26.092Z,45.30
2018-02-08T01:36:53.650Z,47.60
2018-02-08T01:39:21.210Z,43.57
2018-02-08T01:41:48.704Z,46.73
2018-02-08T01:44:16.329Z,46.10
2018-02-08T01:46:43.780Z,45.73
2018-02-08T01:49:11.346Z,46.33
2018-02-08T01:51:38.905Z,47.50
2018-02-08T01:54:06.464Z,45.37
2018-02-08T01:56:34.024Z,43.70
2018-02-08T01:59:01.584Z,44.23
2018-02-08T02:01:29.142Z,48.70
2018-02-08T02:03:56.569Z,45.27
2018-02-08T02:06:24.095Z,45.70
2018-02-08T02:08:51.721Z,43.90
2018-02-08T02:11:19.280Z,44.70
2018-02-08T02:13:46.772Z,44.90
2018-02-08T02:16:14.398Z,45.60
2018-02-08T02:18:41.955Z,45.90
2018-02-08T02:21:09.515Z,46.37
2018-02-08T02:23:37.075Z,46.87
2018-02-08T02:26:04.529Z,46.97
2018-02-08T02:28:32.091Z,46.50
2018-02-08T02:30:59.651Z,44.00
2018-02-08T02:33:27.211Z,45.23
2018-02-08T02:35:54.770Z,42.97
2018-02-08T02:38:22.328Z,45.90
2018-02-08T02:40:49.889Z,45.03
2018-02-08T02:43:17.448Z,44.50
2018-02-08T02:45:45.008Z,44.17
2018-02-08T02:48:12.504Z,42.50
2018-02-08T02:50:40.127Z,44.57
2018-02-08T02:53:07.686Z,43.23
2018-02-08T02:55:35.180Z,45.30
2018-02-08T02:58:02.651Z,45.40
2018-02-08T03:00:30.159Z,45.27
2018-02-08T03:02:57.757Z,47.57
2018-02-08T03:05:25.279Z,44.17
2018-02-08T03:07:52.837Z,44.37
2018-02-08T03:10:20.397Z,42.83
2018-02-08T03:12:47.957Z,43.77
2018-02-08T03:15:15.516Z,44.27
2018-02-08T03:17:42.973Z,44.57
2018-02-08T03:20:10.531Z,45.47
2018-02-08T03:22:37.989Z,46.67
2018-02-08T03:25:05.550Z,42.50
2018-02-08T03:27:33.313Z,44.87
2018-02-08T03:30:00.814Z,41.93
2018-02-08T03:32:28.330Z,45.07
2018-02-08T03:34:55.890Z,42.90
2018-02-08T03:37:23.347Z,43.83
2018-02-08T03:39:50.905Z,44.93
2018-02-08T03:42:18.567Z,44.17
2018-02-08T03:44:46.128Z,42.80
2018-02-08T03:47:13.547Z,43.77
2018-02-08T03:49:41.091Z,44.60
2018-02-08T03:52:08.536Z,43.97
2018-02-08T03:54:36.058Z,43.27
2018-02-08T03:57:03.617Z,43.20
2018-02-08T03:59:31.177Z,43.87
2018-02-08T04:01:58.736Z,43.47
2018-02-08T04:04:26.295Z,43.13
2018-02-08T04:06:53.855Z,43.60
2018-02-08T04:09:21.415Z,43.97
2018-02-08T04:11:48.907Z,43.03
2018-02-08T04:14:16.378Z,44.23
2018-02-08T04:16:43.991Z,46.50
2018-02-08T04:19:11.550Z,41.40
2018-02-08T04:21:39.007Z,44.10
2018-02-08T04:24:06.504Z,41.63
2018-02-08T04:26:33.917Z,42.67
2018-02-08T04:29:01.379Z,44.70
2018-02-08T04:31:28.929Z,46.20
2018-02-08T04:33:56.497Z,44.77
2018-02-08T04:36:24.057Z,41.97
2018-02-08T04:38:57.453Z,44.90
2018-02-08T04:41:30.744Z,45.33
2018-02-08T04:44:00.150Z,41.63
2018-02-08T04:46:33.443Z,43.40
2018-02-08T04:49:00.952Z,42.90
2018-02-08T04:51:28.460Z,45.90
2018-02-08T04:53:55.871Z,44.17
2018-02-08T04:56:23.477Z,44.80
2018-02-08T04:58:51.036Z,44.30
2018-02-08T05:01:18.595Z,44.17
2018-02-08T05:03:46.156Z,43.80
2018-02-08T05:06:13.647Z,44.57
2018-02-08T05:08:41.275Z,42.87
2018-02-08T05:11:08.768Z,40.67
2018-02-08T05:13:36.290Z,42.70
2018-02-08T05:16:03.850Z,42.07
2018-02-08T05:18:31.409Z,43.70
2018-02-08T05:20:58.969Z,42.60
2018-02-08T05:23:26.527Z,43.17
2018-02-08T05:25:54.025Z,42.90
2018-02-08T05:28:21.482Z,45.80
2018-02-08T05:30:48.936Z,45.77
2018-02-08T05:33:16.663Z,42.90
2018-02-08T05:35:44.222Z,43.47
2018-02-08T05:38:11.783Z,44.80
2018-02-08T05:40:39.343Z,43.60
2018-02-08T05:43:06.901Z,42.47
2018-02-08T05:45:34.660Z,43.50
2018-02-08T05:48:02.160Z,44.30
2018-02-08T05:50:30.399Z,44.20
2018-02-08T05:52:57.978Z,41.80
2018-02-08T05:55:25.452Z,46.20
2018-02-08T05:57:52.975Z,42.40
2018-02-08T06:00:20.472Z,42.30
2018-02-08T06:02:47.991Z,44.40
2018-02-08T06:05:15.551Z,44.30
2018-02-08T06:07:43.109Z,43.27
2018-02-08T06:10:10.669Z,43.47
2018-02-08T06:12:38.229Z,43.13
2018-02-08T06:15:05.789Z,42.90
2018-02-08T06:17:33.349Z,45.33
2018-02-08T06:20:00.917Z,42.57
2018-02-08T06:22:28.467Z,43.70
2018-02-08T06:24:59.200Z,46.37
2018-02-08T06:27:26.862Z,46.30
2018-02-08T06:29:54.424Z,47.17
2018-02-08T06:32:21.879Z,45.20
2018-02-08T06:34:49.438Z,46.60
2018-02-08T06:37:16.998Z,45.53
2018-02-08T06:39:44.556Z,45.83
2018-02-08T06:42:12.117Z,47.10
2018-02-08T06:44:44.753Z,46.80
2018-02-08T06:47:12.869Z,44.37
2018-02-08T06:49:40.773Z,47.77
2018-02-08T06:52:08.396Z,46.03
2018-02-08T06:54:35.954Z,47.90
2018-02-08T06:57:04.855Z,46.67
2018-02-08T06:59:32.406Z,46.80
2018-02-08T07:01:59.964Z,46.87
2018-02-08T07:04:27.629Z,43.77
2018-02-08T07:06:55.185Z,42.90
2018-02-08T07:09:22.654Z,44.43
2018-02-08T07:11:50.152Z,46.20
2018-02-08T07:14:17.660Z,46.67
2018-02-08T07:16:45.096Z,48.20
2018-02-08T07:19:12.677Z,47.93
2018-02-08T07:21:40.235Z,48.33
2018-02-08T07:24:07.834Z,45.00
2018-02-08T07:26:35.354Z,47.97
2018-02-08T07:29:02.852Z,44.90
2018-02-08T07:31:30.371Z,45.97
2018-02-08T07:33:57.829Z,50.50
2018-02-08T07:36:25.387Z,49.27
2018-02-08T07:38:52.845Z,50.30
2018-02-08T07:41:20.301Z,46.57
2018-02-08T07:43:47.770Z,47.03
2018-02-08T07:46:16.204Z,47.83
2018-02-08T07:48:44.004Z,49.43
2018-02-08T07:51:11.564Z,48.77
2018-02-08T07:53:39.122Z,49.67
2018-02-08T07:56:06.683Z,52.13
2018-02-08T07:58:34.243Z,47.60
2018-02-08T08:01:01.802Z,49.30
2018-02-08T08:03:29.463Z,48.87
2018-02-08T08:05:56.919Z,49.30
2018-02-08T08:08:24.480Z,50.53
2018-02-08T08:10:52.040Z,49.00
2018-02-08T08:13:19.486Z,47.53
2018-02-08T08:15:47.055Z,47.90
2018-02-08T08:18:14.620Z,48.20
2018-02-08T08:20:42.108Z,47.90
2018-02-08T08:23:09.631Z,47.47
2018-02-08T08:25:37.192Z,47.57
2018-02-08T08:28:04.956Z,51.87
2018-02-08T08:30:32.515Z,48.60
2018-02-08T08:33:00.009Z,50.00
2018-02-08T08:35:27.440Z,45.93
2018-02-08T08:37:55.193Z,48.40
2018-02-08T08:40:22.753Z,47.97
2018-02-08T08:42:50.418Z,47.67
2018-02-08T08:45:17.976Z,46.50
2018-02-08T08:47:45.399Z,48.10
2018-02-08T08:50:12.990Z,44.40
2018-02-08T08:52:41.266Z,42.40
2018-02-08T08:55:08.929Z,41.13
2018-02-08T08:57:36.489Z,42.43
2018-02-08T09:00:04.047Z,40.77
2018-02-08T09:02:31.607Z,37.93
2018-02-08T09:04:59.068Z,40.40
2018-02-08T09:07:26.560Z,41.27
2018-02-08T09:09:54.183Z,39.27
2018-02-08T09:12:21.608Z,38.00
2018-02-08T09:14:49.049Z,42.27
2018-02-08T09:17:16.592Z,40.10
2018-02-08T09:19:44.007Z,40.97
2018-02-08T09:22:11.571Z,40.47
2018-02-08T09:24:39.129Z,39.17
2018-02-08T09:27:06.690Z,40.67
2018-02-08T09:29:34.248Z,42.03
2018-02-08T09:32:01.745Z,40.83
2018-02-08T09:34:29.366Z,42.83
2018-02-08T09:36:56.927Z,42.60
2018-02-08T09:39:24.486Z,42.93
2018-02-08T09:41:52.047Z,41.13
2018-02-08T09:44:19.606Z,44.13
2018-02-08T09:46:47.100Z,42.83
2018-02-08T09:49:14.725Z,42.47
2018-02-08T09:51:42.282Z,42.37
2018-02-08T09:54:09.843Z,42.63
2018-02-08T09:56:37.403Z,42.90
2018-02-08T09:59:04.859Z,43.80
2018-02-08T10:01:32.418Z,45.53
2018-02-08T10:03:59.877Z,43.60
2018-02-08T10:06:27.436Z,43.80
2018-02-08T10:08:55.097Z,46.10
2018-02-08T10:11:22.593Z,44.67
2018-02-08T10:13:50.012Z,45.00
2018-02-08T10:16:17.571Z,42.07
2018-02-08T10:18:45.130Z,43.00
2018-02-08T10:21:12.580Z,41.97
2018-02-08T10:23:40.147Z,40.70
2018-02-08T10:26:07.706Z,41.07
2018-02-08T10:28:35.265Z,40.47
2018-02-08T10:31:02.825Z,39.70
2018-02-08T10:33:30.398Z,39.83
2018-02-08T10:35:57.967Z,38.53
2018-02-08T10:38:25.505Z,39.87
2018-02-08T10:40:52.920Z,38.70
2018-02-08T10:43:20.520Z,37.70
2018-02-08T10:45:48.078Z,36.70
2018-02-08T10:48:15.638Z,36.67
2018-02-08T10:50:43.140Z,38.60
2018-02-08T10:53:10.691Z,35.47
2018-02-08T10:56:00.538Z,36.60
2018-02-08T10:58:28.099Z,35.23
2018-02-08T11:00:55.591Z,35.63
2018-02-08T11:03:23.117Z,33.83
2018-02-08T11:05:50.674Z,35.10
2018-02-08T11:08:18.233Z,34.53
2018-02-08T11:10:45.792Z,34.17
2018-02-08T11:13:13.455Z,32.67
2018-02-08T11:15:41.014Z,33.03
2018-02-08T11:18:08.508Z,30.10
2018-02-08T11:20:36.031Z,27.87
2018-02-08T11:23:03.590Z,27.60
2018-02-08T11:25:31.151Z,27.13
2018-02-08T11:27:58.709Z,26.37
2018-02-08T11:30:26.268Z,32.43
2018-02-08T11:32:53.828Z,30.90
2018-02-08T11:35:21.276Z,30.73
2018-02-08T11:37:48.844Z,28.67
2018-02-08T11:40:16.356Z,28.00
2018-02-08T11:42:43.861Z,28.40
2018-02-08T11:45:11.419Z,27.03
2018-02-08T11:47:38.877Z,28.20
2018-02-08T11:50:06.334Z,28.27
2018-02-08T11:52:33.767Z,27.57
2018-02-08T11:55:01.351Z,27.73
2018-02-08T11:57:28.910Z,23.23
2018-02-08T11:59:56.468Z,22.60
2018-02-08T12:02:23.964Z,23.20
2018-02-08T12:04:51.420Z,24.73
2018-02-08T12:07:18.942Z,23.47
2018-02-08T12:09:46.502Z,23.00
2018-02-08T12:12:13.997Z,24.50
2018-02-08T12:14:41.456Z,24.37
2018-02-08T12:17:08.976Z,23.60
2018-02-08T12:19:36.535Z,23.80
2018-02-08T12:22:04.094Z,25.03
2018-02-08T12:24:31.654Z,24.63
2018-02-08T12:26:59.104Z,24.70
2018-02-08T12:29:26.672Z,27.17
2018-02-08T12:31:54.163Z,24.37
2018-02-08T12:34:21.892Z,25.00
2018-02-08T12:36:49.389Z,25.53
2018-02-08T12:39:16.845Z,25.70
2018-02-08T12:41:44.570Z,26.10
2018-02-08T12:44:12.130Z,25.50
2018-02-08T12:46:39.588Z,25.23
2018-02-08T12:49:07.147Z,23.70
2018-02-08T12:51:34.714Z,25.33
2018-02-08T12:54:02.265Z,26.00
2018-02-08T12:56:29.760Z,26.90
2018-02-08T12:58:57.283Z,24.57
2018-02-08T13:01:24.840Z,24.70
2018-02-08T13:03:52.400Z,25.53
2018-02-08T13:06:19.961Z,24.73
2018-02-08T13:08:47.417Z,23.63
2018-02-08T13:11:15.081Z,23.13
2018-02-08T13:13:42.582Z,25.40
2018-02-08T13:16:10.953Z,25.53
2018-02-08T13:18:38.475Z,28.10
2018-02-08T13:21:05.931Z,25.33
2018-02-08T13:23:33.491Z,26.57
2018-02-08T13:26:01.050Z,27.07
2018-02-08T13:28:28.609Z,25.80
2018-02-08T13:30:56.068Z,28.40
2018-02-08T13:33:23.560Z,27.87
2018-02-08T13:35:51.083Z,26.67
2018-02-08T13:38:18.745Z,26.80
2018-02-08T13:40:48.867Z,27.63
2018-02-08T13:43:16.424Z,27.97
2018-02-08T13:45:43.872Z,28.27
2018-02-08T13:48:21.475Z,26.93
2018-02-08T13:51:04.088Z,26.77
2018-02-08T13:53:37.279Z,25.13
2018-02-08T13:56:22.385Z,28.90
2018-02-08T13:58:51.752Z,27.40
2018-02-08T14:08:46.124Z,29.70
2018-02-08T14:11:13.645Z,29.87
2018-02-08T14:13:41.140Z,30.47
2018-02-08T14:16:08.662Z,29.57
2018-02-08T14:18:36.221Z,27.97
2018-02-08T14:21:03.796Z,28.40
2018-02-08T14:23:31.340Z,29.40
2018-02-08T14:25:58.797Z,28.97
2018-02-08T14:28:26.356Z,29.70
2018-02-08T14:30:53.813Z,28.30
2018-02-08T14:40:42.115Z,28.95
2018-02-08T14:48:03.592Z,30.80
2018-02-08T14:52:58.059Z,30.60
2018-02-08T14:57:54.919Z,29.60
2018-02-08T15:00:22.424Z,30.90
2018-02-08T15:02:49.829Z,30.27
2018-02-08T15:05:17.336Z,29.70
2018-02-08T15:07:44.952Z,30.10
2018-02-08T15:10:12.513Z,30.60
2018-02-08T15:12:40.076Z,30.30
2018-02-08T15:15:07.640Z,35.63
2018-02-08T15:17:35.090Z,34.40
2018-02-08T15:20:02.648Z,34.17
2018-02-08T15:22:30.154Z,31.10
2018-02-08T15:24:57.664Z,31.17
2018-02-08T15:27:25.223Z,30.90
2018-02-08T15:29:52.783Z,29.83
2018-02-08T15:32:20.342Z,29.47
2018-02-08T15:34:47.836Z,32.10
2018-02-08T15:37:15.240Z,30.67
2018-02-08T15:39:42.816Z,29.50
2018-02-08T15:42:10.375Z,29.03
2018-02-08T15:44:37.937Z,28.87
2018-02-08T15:47:05.494Z,29.70
2018-02-08T15:49:33.156Z,27.17
2018-02-08T15:52:00.715Z,29.10
2018-02-08T15:54:28.208Z,29.40
2018-02-08T15:56:55.732Z,28.77
2018-02-08T15:59:24.216Z,25.90
2018-02-08T16:01:51.821Z,27.93
2018-02-08T16:04:19.331Z,26.87
2018-02-08T16:06:46.892Z,27.23
2018-02-08T16:09:14.451Z,26.83
2018-02-08T16:11:41.908Z,26.13
2018-02-08T16:14:10.389Z,26.00
2018-02-08T16:16:37.948Z,25.93
2018-02-08T16:19:05.508Z,25.37
2018-02-08T16:21:33.068Z,25.73
2018-02-08T16:24:00.516Z,25.67
2018-02-08T16:26:28.016Z,25.90
2018-02-08T16:28:55.643Z,27.30
2018-02-08T16:31:23.203Z,24.77
2018-02-08T16:33:50.761Z,27.80
2018-02-08T16:36:18.322Z,24.70
2018-02-08T16:38:45.881Z,25.40
2018-02-08T16:41:13.441Z,26.37
2018-02-08T16:43:41.000Z,25.80
2018-02-08T16:46:08.559Z,25.73
2018-02-08T16:48:36.118Z,26.63
2018-02-08T16:51:03.678Z,26.40
2018-02-08T16:53:31.136Z,24.70
2018-02-08T16:55:58.695Z,25.27
2018-02-08T16:58:26.192Z,25.00
2018-02-08T17:00:53.877Z,27.00
2018-02-08T17:03:22.093Z,24.90
2018-02-08T17:05:49.649Z,25.20
2018-02-08T17:08:17.145Z,25.43
2018-02-08T17:10:44.618Z,25.03
2018-02-08T17:13:12.045Z,26.10
2018-02-08T17:15:39.579Z,25.67
2018-02-08T17:18:07.177Z,25.50
2018-02-08T17:20:34.698Z,26.33
2018-02-08T17:23:02.258Z,27.50
2018-02-08T17:25:29.817Z,25.07
2018-02-08T17:27:57.478Z,26.70
2018-02-08T17:30:25.040Z,27.10
2018-02-08T17:32:52.533Z,25.23
2018-02-08T17:35:20.055Z,26.90
2018-02-08T17:38:03.831Z,26.37
2018-02-08T17:40:45.809Z,25.00
2018-02-08T17:43:13.780Z,26.47
2018-02-08T17:45:55.049Z,25.83
2018-02-08T17:48:27.565Z,25.47
2018-02-08T17:50:55.179Z,26.53
2018-02-08T17:53:22.692Z,26.27
2018-02-08T17:55:50.298Z,27.00
2018-02-08T17:58:17.857Z,27.07
2018-02-08T18:00:45.313Z,26.47
2018-02-08T18:03:12.978Z,27.63
2018-02-08T18:05:40.535Z,26.70
2018-02-08T18:08:08.029Z,25.40
2018-02-08T18:10:35.503Z,27.47
2018-02-08T18:13:03.009Z,26.63
2018-02-08T18:15:30.434Z,28.17
2018-02-08T18:17:57.908Z,27.00
2018-02-08T18:20:25.481Z,29.17
2018-02-08T18:22:53.041Z,28.43
2018-02-08T18:25:20.601Z,38.83
2018-02-08T18:27:48.100Z,61.23
2018-02-08T18:30:15.735Z,57.73
2018-02-08T18:32:43.279Z,49.10
2018-02-08T18:35:10.864Z,42.13
2018-02-08T18:37:38.400Z,37.10
2018-02-08T18:40:05.957Z,38.70
2018-02-08T18:42:33.526Z,36.97
2018-02-08T18:45:01.076Z,35.30
2018-02-08T18:47:28.639Z,37.00
2018-02-08T18:49:56.094Z,36.60
2018-02-08T18:52:23.689Z,35.33
2018-02-08T18:54:51.147Z,36.60
2018-02-08T18:57:18.669Z,34.17
2018-02-08T18:59:46.164Z,36.57
2018-02-08T19:02:13.619Z,33.00
2018-02-08T19:04:41.143Z,36.30
2018-02-08T19:07:08.905Z,35.20
2018-02-08T19:09:36.494Z,37.40
2018-02-08T19:12:04.026Z,35.33
2018-02-08T19:14:31.585Z,35.07
2018-02-08T19:16:59.144Z,35.70
2018-02-08T19:19:26.704Z,37.57
2018-02-08T19:21:54.365Z,39.07
2018-02-08T19:24:21.925Z,35.40
2018-02-08T19:26:49.587Z,37.80
2018-02-08T19:29:17.057Z,37.30
2018-02-08T19:31:44.604Z,35.63
2018-02-08T19:34:12.265Z,35.57
2018-02-08T19:36:39.760Z,34.83
2018-02-08T19:39:07.229Z,34.70
2018-02-08T19:41:34.656Z,32.17
2018-02-08T19:44:02.094Z,34.37
2018-02-08T19:46:29.588Z,32.27
2018-02-08T19:48:57.043Z,32.37
2018-02-08T19:51:24.501Z,30.70
2018-02-08T19:53:52.229Z,30.73
2018-02-08T19:56:19.740Z,28.70
2018-02-08T19:58:47.139Z,30.20
2018-02-08T20:01:14.702Z,31.77
2018-02-08T20:03:42.262Z,31.40
2018-02-08T20:06:09.718Z,31.13
2018-02-08T20:08:37.278Z,31.17
2018-02-08T20:11:04.838Z,29.37
2018-02-08T20:13:32.399Z,32.03
2018-02-08T20:15:59.957Z,32.40
2018-02-08T20:18:27.395Z,31.00
2018-02-08T20:20:54.862Z,29.27
2018-02-08T20:23:22.431Z,31.40
2018-02-08T20:25:50.029Z,29.43
2018-02-08T20:28:17.554Z,30.70
2018-02-08T20:30:50.843Z,29.90
2018-02-08T20:33:18.410Z,31.27
2018-02-08T20:35:45.962Z,30.33
2018-02-08T20:38:13.727Z,30.67
2018-02-08T20:40:41.286Z,30.23
2018-02-08T20:43:28.404Z,30.53
2018-02-08T20:45:55.963Z,29.67
2018-02-08T20:48:23.833Z,30.00
2018-02-08T20:50:51.324Z,31.60
2018-02-08T20:53:18.846Z,30.20
2018-02-08T20:55:46.406Z,30.80
2018-02-08T20:58:14.068Z,29.50
2018-02-08T21:00:41.633Z,30.40
2018-02-08T21:03:09.288Z,32.10
2018-02-08T21:05:36.849Z,31.43
2018-02-08T21:08:04.888Z,30.93
2018-02-08T21:10:32.479Z,32.63
2018-02-08T21:13:00.039Z,31.57
2018-02-08T21:15:27.600Z,31.87
2018-02-08T21:17:55.158Z,31.70
2018-02-08T21:20:22.728Z,33.10
2018-02-08T21:22:50.137Z,29.87
2018-02-08T21:25:17.733Z,31.00
2018-02-08T21:27:45.293Z,32.80
2018-02-08T21:30:12.955Z,33.67
2018-02-08T21:32:40.411Z,31.20
2018-02-08T21:35:08.008Z,32.10
2018-02-08T21:37:35.532Z,32.80
2018-02-08T21:40:03.093Z,31.63
2018-02-08T21:42:30.585Z,30.83
2018-02-08T21:44:58.043Z,32.50
2018-02-08T21:47:25.491Z,31.10
2018-02-08T21:49:52.956Z,31.93
2018-02-08T21:52:20.416Z,33.57
2018-02-08T21:54:47.872Z,32.57
2018-02-08T21:57:15.494Z,36.37
2018-02-08T21:59:43.053Z,36.30
2018-02-08T22:02:10.716Z,40.83
2018-02-08T22:04:38.276Z,38.57
2018-02-08T22:07:05.835Z,39.73
2018-02-08T22:09:33.264Z,38.80
2018-02-08T22:12:00.852Z,41.30
2018-02-08T22:14:28.295Z,44.27
2018-02-08T22:16:55.845Z,37.97
2018-02-08T22:19:23.529Z,39.00
2018-02-08T22:21:50.988Z,41.07
2018-02-08T22:24:18.583Z,41.03
2018-02-08T22:26:46.028Z,36.63
2018-02-08T22:29:13.502Z,37.40
2018-02-08T22:31:41.942Z,35.97
2018-02-08T22:34:10.115Z,39.00
2018-02-08T22:36:38.208Z,35.80
2018-02-08T22:39:05.624Z,35.47
2018-02-08T22:41:33.202Z,34.80
2018-02-08T22:44:01.378Z,33.50
2018-02-08T22:46:28.872Z,33.53
2018-02-08T22:48:56.394Z,34.53
2018-02-08T22:51:23.958Z,32.90
2018-02-08T22:53:51.513Z,32.33
2018-02-08T22:56:19.128Z,33.97
2018-02-08T22:58:46.635Z,32.40
2018-02-08T23:01:14.089Z,33.23
2018-02-08T23:03:41.648Z,33.77
2018-02-08T23:06:09.208Z,32.17
2018-02-08T23:08:36.767Z,32.40
2018-02-08T23:11:04.430Z,34.13
2018-02-08T23:13:32.094Z,31.90
2018-02-08T23:15:59.649Z,32.20
2018-02-08T23:18:27.313Z,32.93
2018-02-08T23:20:54.733Z,31.87
2018-02-08T23:23:22.328Z,33.30
2018-02-08T23:25:49.824Z,33.30
2018-02-08T23:28:17.357Z,34.23
2018-02-08T23:30:44.905Z,35.57
2018-02-08T23:33:12.464Z,38.27
2018-02-08T23:35:40.024Z,37.07
2018-02-08T23:38:07.445Z,34.07
2018-02-08T23:40:35.042Z,33.57
2018-02-08T23:43:02.538Z,34.37
2018-02-08T23:45:30.056Z,35.80
2018-02-08T23:47:57.615Z,36.80
2018-02-08T23:50:25.075Z,34.63
2018-02-08T23:52:52.632Z,32.53
2018-02-08T23:55:20.044Z,37.10
2018-02-08T23:57:47.546Z,34.57
